sensor_id;sensor_type;location;lat;lon;timestamp;pressure;altitude;pressure_sealevel;temperature;humidity
20077;BME280;12348;42.710;23.378;2024-02-26T00:01:50;94676.97;;;6.89;100.00
20077;BME280;12348;42.710;23.378;2024-02-26T00:04:17;94689.25;;;6.95;100.00
20077;BME280;12348;42.710;23.378;2024-02-26T00:06:44;94681.66;;;7.08;100.00
20077;BME280;12348;42.710;23.378;2024-02-26T00:09:11;94682.81;;;6.96;100.00
20077;BME280;12348;42.710;23.378;2024-02-26T00:11:38;94679.59;;;6.94;100.00
20077;BME280;12348;42.710;23.378;2024-02-26T00:14:05;94673.25;;;6.85;100.00
20077;BME280;12348;42.710;23.378;2024-02-26T00:16:32;94674.31;;;6.84;100.00
20077;BME280;12348;42.710;23.378;2024-02-26T00:19:00;94673.53;;;6.84;100.00
20077;BME280;12348;42.710;23.378;2024-02-26T00:21:27;94680.78;;;6.78;100.00
20077;BME280;12348;42.710;23.378;2024-02-26T00:23:54;94683.25;;;6.69;100.00
20077;BME280;12348;42.710;23.378;2024-02-26T00:26:20;94684.34;;;6.63;100.00
20077;BME280;12348;42.710;23.378;2024-02-26T00:28:47;94679.78;;;6.64;100.00
20077;BME280;12348;42.710;23.378;2024-02-26T00:31:14;94677.13;;;6.59;100.00
20077;BME280;12348;42.710;23.378;2024-02-26T00:33:40;94665.22;;;6.85;100.00
20077;BME280;12348;42.710;23.378;2024-02-26T00:36:09;94661.56;;;6.71;100.00
20077;BME280;12348;42.710;23.378;2024-02-26T00:38:36;94665.03;;;6.71;100.00
20077;BME280;12348;42.710;23.378;2024-02-26T00:41:03;94656.41;;;6.79;100.00
20077;BME280;12348;42.710;23.378;2024-02-26T00:43:29;94649.72;;;6.82;100.00
20077;BME280;12348;42.710;23.378;2024-02-26T00:45:56;94648.94;;;7.16;100.00
20077;BME280;12348;42.710;23.378;2024-02-26T00:48:23;94647.34;;;7.15;100.00
20077;BME280;12348;42.710;23.378;2024-02-26T00:50:51;94647.50;;;7.28;100.00
20077;BME280;12348;42.710;23.378;2024-02-26T00:53:19;94643.81;;;7.24;100.00
20077;BME280;12348;42.710;23.378;2024-02-26T00:55:45;94638.84;;;7.08;100.00
20077;BME280;12348;42.710;23.378;2024-02-26T00:58:12;94638.00;;;7.12;100.00
20077;BME280;12348;42.710;23.378;2024-02-26T01:00:39;94635.84;;;7.14;100.00
20077;BME280;12348;42.710;23.378;2024-02-26T01:03:05;94639.56;;;7.18;100.00
20077;BME280;12348;42.710;23.378;2024-02-26T01:05:32;94642.03;;;7.10;100.00
20077;BME280;12348;42.710;23.378;2024-02-26T01:07:59;94633.22;;;7.04;100.00
20077;BME280;12348;42.710;23.378;2024-02-26T01:10:27;94631.34;;;7.04;100.00
20077;BME280;12348;42.710;23.378;2024-02-26T01:12:53;94628.19;;;6.97;100.00
20077;BME280;12348;42.710;23.378;2024-02-26T01:15:20;94625.28;;;6.94;100.00
20077;BME280;12348;42.710;23.378;2024-02-26T01:17:49;94629.56;;;6.95;100.00
20077;BME280;12348;42.710;23.378;2024-02-26T01:20:16;94627.03;;;7.14;100.00
20077;BME280;12348;42.710;23.378;2024-02-26T01:22:43;94629.44;;;7.39;100.00
20077;BME280;12348;42.710;23.378;2024-02-26T01:25:10;94632.72;;;7.36;100.00
20077;BME280;12348;42.710;23.378;2024-02-26T01:27:38;94631.44;;;7.28;100.00
20077;BME280;12348;42.710;23.378;2024-02-26T01:30:07;94627.03;;;7.09;100.00
20077;BME280;12348;42.710;23.378;2024-02-26T01:32:34;94627.19;;;6.88;100.00
20077;BME280;12348;42.710;23.378;2024-02-26T01:35:01;94621.53;;;6.95;100.00
20077;BME280;12348;42.710;23.378;2024-02-26T01:37:28;94624.00;;;6.86;100.00
20077;BME280;12348;42.710;23.378;2024-02-26T01:39:56;94619.78;;;6.75;100.00
20077;BME280;12348;42.710;23.378;2024-02-26T01:42:23;94632.66;;;6.73;100.00
20077;BME280;12348;42.710;23.378;2024-02-26T01:44:51;94631.31;;;6.70;100.00
20077;BME280;12348;42.710;23.378;2024-02-26T01:47:18;94625.97;;;6.70;100.00
20077;BME280;12348;42.710;23.378;2024-02-26T01:49:45;94620.91;;;6.69;100.00
20077;BME280;12348;42.710;23.378;2024-02-26T01:52:12;94616.59;;;6.73;100.00
20077;BME280;12348;42.710;23.378;2024-02-26T01:54:39;94607.09;;;6.91;100.00
20077;BME280;12348;42.710;23.378;2024-02-26T01:57:07;94609.31;;;6.84;100.00
20077;BME280;12348;42.710;23.378;2024-02-26T01:59:35;94605.25;;;6.91;100.00
20077;BME280;12348;42.710;23.378;2024-02-26T02:02:06;94608.97;;;6.90;100.00
20077;BME280;12348;42.710;23.378;2024-02-26T02:04:34;94607.25;;;7.04;100.00
20077;BME280;12348;42.710;23.378;2024-02-26T02:07:01;94608.16;;;6.95;100.00
20077;BME280;12348;42.710;23.378;2024-02-26T02:09:28;94603.25;;;7.07;100.00
20077;BME280;12348;42.710;23.378;2024-02-26T02:11:55;94599.16;;;7.15;100.00
20077;BME280;12348;42.710;23.378;2024-02-26T02:14:22;94605.59;;;7.14;100.00
20077;BME280;12348;42.710;23.378;2024-02-26T02:16:49;94601.34;;;7.08;100.00
20077;BME280;12348;42.710;23.378;2024-02-26T02:19:17;94602.50;;;6.96;100.00
20077;BME280;12348;42.710;23.378;2024-02-26T02:21:45;94596.69;;;6.89;100.00
20077;BME280;12348;42.710;23.378;2024-02-26T02:24:12;94604.41;;;6.91;100.00
20077;BME280;12348;42.710;23.378;2024-02-26T02:26:39;94598.00;;;6.92;100.00
20077;BME280;12348;42.710;23.378;2024-02-26T02:29:07;94604.16;;;6.92;100.00
20077;BME280;12348;42.710;23.378;2024-02-26T02:31:34;94615.91;;;6.96;100.00
20077;BME280;12348;42.710;23.378;2024-02-26T02:34:01;94619.84;;;7.04;100.00
20077;BME280;12348;42.710;23.378;2024-02-26T02:36:28;94611.28;;;7.07;100.00
20077;BME280;12348;42.710;23.378;2024-02-26T02:38:57;94607.38;;;7.23;100.00
20077;BME280;12348;42.710;23.378;2024-02-26T02:41:23;94618.63;;;7.20;100.00
20077;BME280;12348;42.710;23.378;2024-02-26T02:43:51;94602.78;;;7.58;100.00
20077;BME280;12348;42.710;23.378;2024-02-26T02:46:19;94611.22;;;7.70;100.00
20077;BME280;12348;42.710;23.378;2024-02-26T02:48:47;94608.50;;;7.46;100.00
20077;BME280;12348;42.710;23.378;2024-02-26T02:51:13;94615.81;;;7.41;100.00
20077;BME280;12348;42.710;23.378;2024-02-26T02:53:40;94615.50;;;7.42;100.00
20077;BME280;12348;42.710;23.378;2024-02-26T02:56:08;94615.09;;;7.30;100.00
20077;BME280;12348;42.710;23.378;2024-02-26T02:58:35;94614.06;;;7.26;100.00
20077;BME280;12348;42.710;23.378;2024-02-26T03:01:01;94619.47;;;7.21;100.00
20077;BME280;12348;42.710;23.378;2024-02-26T03:03:28;94612.00;;;7.13;100.00
20077;BME280;12348;42.710;23.378;2024-02-26T03:05:55;94614.19;;;7.11;100.00
20077;BME280;12348;42.710;23.378;2024-02-26T03:08:22;94619.28;;;7.07;100.00
20077;BME280;12348;42.710;23.378;2024-02-26T03:10:49;94629.09;;;7.17;100.00
20077;BME280;12348;42.710;23.378;2024-02-26T03:13:17;94626.91;;;7.24;100.00
20077;BME280;12348;42.710;23.378;2024-02-26T03:15:44;94625.09;;;7.19;100.00
20077;BME280;12348;42.710;23.378;2024-02-26T03:18:10;94626.47;;;7.12;100.00
20077;BME280;12348;42.710;23.378;2024-02-26T03:20:37;94614.78;;;7.02;100.00
20077;BME280;12348;42.710;23.378;2024-02-26T03:23:04;94618.53;;;7.01;100.00
20077;BME280;12348;42.710;23.378;2024-02-26T03:25:30;94610.19;;;7.08;100.00
20077;BME280;12348;42.710;23.378;2024-02-26T03:27:57;94614.00;;;7.31;100.00
20077;BME280;12348;42.710;23.378;2024-02-26T03:30:30;94605.97;;;7.31;100.00
20077;BME280;12348;42.710;23.378;2024-02-26T03:32:56;94596.88;;;7.32;100.00
20077;BME280;12348;42.710;23.378;2024-02-26T03:35:23;94597.28;;;7.44;100.00
20077;BME280;12348;42.710;23.378;2024-02-26T03:37:50;94596.09;;;7.26;100.00
20077;BME280;12348;42.710;23.378;2024-02-26T03:40:17;94601.16;;;7.33;100.00
20077;BME280;12348;42.710;23.378;2024-02-26T03:42:44;94603.59;;;7.29;100.00
20077;BME280;12348;42.710;23.378;2024-02-26T03:45:11;94604.34;;;7.01;100.00
20077;BME280;12348;42.710;23.378;2024-02-26T03:47:39;94602.31;;;6.88;100.00
20077;BME280;12348;42.710;23.378;2024-02-26T03:50:07;94601.53;;;6.82;100.00
20077;BME280;12348;42.710;23.378;2024-02-26T03:52:34;94606.88;;;6.87;100.00
20077;BME280;12348;42.710;23.378;2024-02-26T03:55:01;94595.47;;;6.71;100.00
20077;BME280;12348;42.710;23.378;2024-02-26T03:57:27;94598.44;;;6.70;100.00
20077;BME280;12348;42.710;23.378;2024-02-26T03:59:54;94596.25;;;6.72;100.00
20077;BME280;12348;42.710;23.378;2024-02-26T04:02:21;94595.69;;;6.80;100.00
20077;BME280;12348;42.710;23.378;2024-02-26T04:04:49;94593.44;;;6.58;100.00
20077;BME280;12348;42.710;23.378;2024-02-26T04:07:16;94602.28;;;6.53;100.00
20077;BME280;12348;42.710;23.378;2024-02-26T04:09:43;94601.81;;;6.41;100.00
20077;BME280;12348;42.710;23.378;2024-02-26T04:12:10;94589.03;;;6.33;100.00
20077;BME280;12348;42.710;23.378;2024-02-26T04:14:36;94593.88;;;6.26;100.00
20077;BME280;12348;42.710;23.378;2024-02-26T04:17:03;94588.28;;;6.22;100.00
20077;BME280;12348;42.710;23.378;2024-02-26T04:19:30;94591.66;;;6.43;100.00
20077;BME280;12348;42.710;23.378;2024-02-26T04:21:58;94585.53;;;6.77;100.00
20077;BME280;12348;42.710;23.378;2024-02-26T04:24:25;94575.78;;;6.13;100.00
20077;BME280;12348;42.710;23.378;2024-02-26T04:26:52;94579.41;;;6.27;100.00
20077;BME280;12348;42.710;23.378;2024-02-26T04:29:19;94575.53;;;6.09;100.00
20077;BME280;12348;42.710;23.378;2024-02-26T04:31:45;94586.50;;;6.02;100.00
20077;BME280;12348;42.710;23.378;2024-02-26T04:34:13;94582.25;;;5.96;100.00
20077;BME280;12348;42.710;23.378;2024-02-26T04:36:40;94575.31;;;5.85;100.00
20077;BME280;12348;42.710;23.378;2024-02-26T04:39:09;94582.53;;;5.84;100.00
20077;BME280;12348;42.710;23.378;2024-02-26T04:41:36;94592.94;;;5.86;100.00
20077;BME280;12348;42.710;23.378;2024-02-26T04:44:03;94600.16;;;5.86;100.00
20077;BME280;12348;42.710;23.378;2024-02-26T04:46:30;94597.75;;;5.84;100.00
20077;BME280;12348;42.710;23.378;2024-02-26T04:48:56;94589.75;;;5.84;100.00
20077;BME280;12348;42.710;23.378;2024-02-26T04:51:23;94596.72;;;5.80;100.00
20077;BME280;12348;42.710;23.378;2024-02-26T04:53:50;94589.47;;;5.86;100.00
20077;BME280;12348;42.710;23.378;2024-02-26T04:56:20;94602.28;;;5.89;100.00
20077;BME280;12348;42.710;23.378;2024-02-26T04:58:47;94603.88;;;5.90;100.00
20077;BME280;12348;42.710;23.378;2024-02-26T05:01:13;94599.28;;;6.11;100.00
20077;BME280;12348;42.710;23.378;2024-02-26T05:03:41;94600.31;;;6.20;100.00
20077;BME280;12348;42.710;23.378;2024-02-26T05:06:11;94599.88;;;6.52;100.00
20077;BME280;12348;42.710;23.378;2024-02-26T05:08:38;94601.69;;;6.62;100.00
20077;BME280;12348;42.710;23.378;2024-02-26T05:11:05;94610.66;;;6.37;100.00
20077;BME280;12348;42.710;23.378;2024-02-26T05:13:33;94609.28;;;6.44;100.00
20077;BME280;12348;42.710;23.378;2024-02-26T05:15:59;94608.44;;;6.49;100.00
20077;BME280;12348;42.710;23.378;2024-02-26T05:18:27;94619.13;;;6.54;100.00
20077;BME280;12348;42.710;23.378;2024-02-26T05:20:53;94622.38;;;6.46;100.00
20077;BME280;12348;42.710;23.378;2024-02-26T05:23:20;94629.84;;;6.49;100.00
20077;BME280;12348;42.710;23.378;2024-02-26T05:25:48;94629.03;;;6.53;100.00
20077;BME280;12348;42.710;23.378;2024-02-26T05:28:15;94627.97;;;6.49;100.00
20077;BME280;12348;42.710;23.378;2024-02-26T05:30:43;94635.47;;;6.42;100.00
20077;BME280;12348;42.710;23.378;2024-02-26T05:33:10;94638.19;;;6.37;100.00
20077;BME280;12348;42.710;23.378;2024-02-26T05:35:36;94638.19;;;6.37;100.00
20077;BME280;12348;42.710;23.378;2024-02-26T05:38:04;94635.22;;;6.44;100.00
20077;BME280;12348;42.710;23.378;2024-02-26T05:40:31;94648.59;;;6.44;100.00
20077;BME280;12348;42.710;23.378;2024-02-26T05:42:58;94654.16;;;6.58;100.00
20077;BME280;12348;42.710;23.378;2024-02-26T05:45:25;94648.22;;;7.05;100.00
20077;BME280;12348;42.710;23.378;2024-02-26T05:47:53;94644.25;;;6.97;100.00
20077;BME280;12348;42.710;23.378;2024-02-26T05:50:20;94649.41;;;6.89;100.00
20077;BME280;12348;42.710;23.378;2024-02-26T05:52:47;94637.28;;;7.36;100.00
20077;BME280;12348;42.710;23.378;2024-02-26T05:55:13;94649.25;;;7.72;100.00
20077;BME280;12348;42.710;23.378;2024-02-26T05:57:40;94646.06;;;7.41;100.00
20077;BME280;12348;42.710;23.378;2024-02-26T06:00:08;94647.28;;;7.25;100.00
20077;BME280;12348;42.710;23.378;2024-02-26T06:02:34;94649.66;;;7.26;100.00
20077;BME280;12348;42.710;23.378;2024-02-26T06:05:04;94649.81;;;7.40;100.00
20077;BME280;12348;42.710;23.378;2024-02-26T06:07:32;94662.69;;;7.38;100.00
20077;BME280;12348;42.710;23.378;2024-02-26T06:10:00;94667.25;;;7.38;100.00
20077;BME280;12348;42.710;23.378;2024-02-26T06:12:27;94663.00;;;7.32;100.00
20077;BME280;12348;42.710;23.378;2024-02-26T06:14:56;94670.59;;;7.19;100.00
20077;BME280;12348;42.710;23.378;2024-02-26T06:17:23;94667.97;;;7.14;100.00
20077;BME280;12348;42.710;23.378;2024-02-26T06:19:51;94674.59;;;7.22;100.00
20077;BME280;12348;42.710;23.378;2024-02-26T06:22:19;94673.41;;;7.38;100.00
20077;BME280;12348;42.710;23.378;2024-02-26T06:24:45;94669.22;;;7.56;100.00
20077;BME280;12348;42.710;23.378;2024-02-26T06:27:12;94675.72;;;7.50;100.00
20077;BME280;12348;42.710;23.378;2024-02-26T06:29:39;94665.88;;;7.40;100.00
20077;BME280;12348;42.710;23.378;2024-02-26T06:32:06;94674.00;;;7.30;100.00
20077;BME280;12348;42.710;23.378;2024-02-26T06:34:33;94667.97;;;7.48;100.00
20077;BME280;12348;42.710;23.378;2024-02-26T06:36:59;94672.53;;;7.77;100.00
20077;BME280;12348;42.710;23.378;2024-02-26T06:39:27;94669.81;;;8.06;100.00
20077;BME280;12348;42.710;23.378;2024-02-26T06:41:54;94666.44;;;8.19;100.00
20077;BME280;12348;42.710;23.378;2024-02-26T06:44:25;94672.78;;;8.53;100.00
20077;BME280;12348;42.710;23.378;2024-02-26T06:46:57;94668.25;;;8.72;100.00
20077;BME280;12348;42.710;23.378;2024-02-26T06:49:23;94671.28;;;8.65;100.00
20077;BME280;12348;42.710;23.378;2024-02-26T06:51:50;94661.72;;;8.78;100.00
20077;BME280;12348;42.710;23.378;2024-02-26T06:54:17;94664.25;;;8.88;100.00
20077;BME280;12348;42.710;23.378;2024-02-26T06:56:45;94665.28;;;8.92;100.00
20077;BME280;12348;42.710;23.378;2024-02-26T06:59:11;94669.84;;;8.73;100.00
20077;BME280;12348;42.710;23.378;2024-02-26T07:01:40;94664.47;;;8.73;100.00
20077;BME280;12348;42.710;23.378;2024-02-26T07:04:07;94677.63;;;8.74;100.00
20077;BME280;12348;42.710;23.378;2024-02-26T07:06:36;94672.16;;;8.80;100.00
20077;BME280;12348;42.710;23.378;2024-02-26T07:09:03;94669.78;;;8.78;100.00
20077;BME280;12348;42.710;23.378;2024-02-26T07:11:29;94673.75;;;8.99;100.00
20077;BME280;12348;42.710;23.378;2024-02-26T07:13:57;94677.69;;;9.07;100.00
20077;BME280;12348;42.710;23.378;2024-02-26T07:16:24;94688.06;;;9.14;100.00
20077;BME280;12348;42.710;23.378;2024-02-26T07:18:51;94680.09;;;9.09;100.00
20077;BME280;12348;42.710;23.378;2024-02-26T07:21:18;94697.31;;;9.08;100.00
20077;BME280;12348;42.710;23.378;2024-02-26T07:23:45;94694.75;;;9.16;100.00
20077;BME280;12348;42.710;23.378;2024-02-26T07:26:11;94690.91;;;9.22;100.00
20077;BME280;12348;42.710;23.378;2024-02-26T07:28:38;94686.44;;;9.51;100.00
20077;BME280;12348;42.710;23.378;2024-02-26T07:31:07;94689.38;;;9.68;100.00
20077;BME280;12348;42.710;23.378;2024-02-26T07:33:33;94692.56;;;9.70;100.00
20077;BME280;12348;42.710;23.378;2024-02-26T07:36:00;94691.41;;;9.76;100.00
20077;BME280;12348;42.710;23.378;2024-02-26T07:38:27;94685.50;;;9.74;100.00
20077;BME280;12348;42.710;23.378;2024-02-26T07:40:54;94689.09;;;9.69;100.00
20077;BME280;12348;42.710;23.378;2024-02-26T07:43:22;94686.03;;;9.76;100.00
20077;BME280;12348;42.710;23.378;2024-02-26T07:45:49;94694.34;;;9.93;100.00
20077;BME280;12348;42.710;23.378;2024-02-26T07:48:17;94693.03;;;9.91;100.00
20077;BME280;12348;42.710;23.378;2024-02-26T07:50:43;94692.50;;;9.89;100.00
20077;BME280;12348;42.710;23.378;2024-02-26T07:53:11;94695.28;;;10.30;100.00
20077;BME280;12348;42.710;23.378;2024-02-26T07:55:37;94697.59;;;10.51;100.00
20077;BME280;12348;42.710;23.378;2024-02-26T07:58:04;94701.09;;;10.65;100.00
20077;BME280;12348;42.710;23.378;2024-02-26T08:00:31;94694.41;;;10.76;100.00
20077;BME280;12348;42.710;23.378;2024-02-26T08:02:58;94698.34;;;10.92;100.00
20077;BME280;12348;42.710;23.378;2024-02-26T08:05:26;94689.13;;;10.57;100.00
20077;BME280;12348;42.710;23.378;2024-02-26T08:07:53;94681.41;;;10.92;100.00
20077;BME280;12348;42.710;23.378;2024-02-26T08:10:20;94679.97;;;11.31;100.00
20077;BME280;12348;42.710;23.378;2024-02-26T08:12:46;94673.63;;;11.49;100.00
20077;BME280;12348;42.710;23.378;2024-02-26T08:15:13;94681.59;;;11.32;100.00
20077;BME280;12348;42.710;23.378;2024-02-26T08:17:40;94674.38;;;11.41;100.00
20077;BME280;12348;42.710;23.378;2024-02-26T08:20:07;94668.31;;;11.58;100.00
20077;BME280;12348;42.710;23.378;2024-02-26T08:22:36;94682.56;;;12.03;100.00
20077;BME280;12348;42.710;23.378;2024-02-26T08:25:05;94682.19;;;12.19;100.00
20077;BME280;12348;42.710;23.378;2024-02-26T08:27:34;94676.88;;;12.45;100.00
20077;BME280;12348;42.710;23.378;2024-02-26T08:30:01;94679.44;;;12.10;100.00
20077;BME280;12348;42.710;23.378;2024-02-26T08:32:28;94675.06;;;12.23;100.00
20077;BME280;12348;42.710;23.378;2024-02-26T08:34:55;94673.50;;;12.30;100.00
20077;BME280;12348;42.710;23.378;2024-02-26T08:37:23;94668.34;;;12.51;100.00
20077;BME280;12348;42.710;23.378;2024-02-26T08:39:51;94665.31;;;12.53;100.00
20077;BME280;12348;42.710;23.378;2024-02-26T08:42:17;94666.63;;;12.64;100.00
20077;BME280;12348;42.710;23.378;2024-02-26T08:44:44;94666.84;;;13.02;100.00
20077;BME280;12348;42.710;23.378;2024-02-26T08:47:11;94662.59;;;13.36;100.00
20077;BME280;12348;42.710;23.378;2024-02-26T08:49:42;94668.63;;;13.59;100.00
20077;BME280;12348;42.710;23.378;2024-02-26T08:52:09;94659.34;;;14.03;100.00
20077;BME280;12348;42.710;23.378;2024-02-26T08:54:36;94671.03;;;14.34;100.00
20077;BME280;12348;42.710;23.378;2024-02-26T08:57:04;94672.03;;;14.67;100.00
20077;BME280;12348;42.710;23.378;2024-02-26T08:59:31;94675.78;;;14.84;100.00
20077;BME280;12348;42.710;23.378;2024-02-26T09:01:57;94676.22;;;14.86;100.00
20077;BME280;12348;42.710;23.378;2024-02-26T09:04:24;94676.69;;;15.17;100.00
20077;BME280;12348;42.710;23.378;2024-02-26T09:06:51;94668.81;;;15.24;97.14
20077;BME280;12348;42.710;23.378;2024-02-26T09:09:19;94665.59;;;14.81;96.02
20077;BME280;12348;42.710;23.378;2024-02-26T09:11:45;94672.50;;;14.22;98.58
20077;BME280;12348;42.710;23.378;2024-02-26T09:14:13;94661.16;;;13.73;99.33
20077;BME280;12348;42.710;23.378;2024-02-26T09:16:41;94656.84;;;13.81;99.22
20077;BME280;12348;42.710;23.378;2024-02-26T09:19:07;94658.44;;;13.73;100.00
20077;BME280;12348;42.710;23.378;2024-02-26T09:21:34;94657.81;;;13.68;99.91
20077;BME280;12348;42.710;23.378;2024-02-26T09:24:01;94666.25;;;13.66;100.00
20077;BME280;12348;42.710;23.378;2024-02-26T09:26:27;94667.63;;;12.85;100.00
20077;BME280;12348;42.710;23.378;2024-02-26T09:28:54;94656.25;;;13.23;98.91
20077;BME280;12348;42.710;23.378;2024-02-26T09:31:22;94653.56;;;13.41;94.24
20077;BME280;12348;42.710;23.378;2024-02-26T09:33:49;94658.47;;;13.56;94.78
20077;BME280;12348;42.710;23.378;2024-02-26T09:36:16;94647.16;;;13.71;94.36
20077;BME280;12348;42.710;23.378;2024-02-26T09:38:42;94635.13;;;14.07;92.55
20077;BME280;12348;42.710;23.378;2024-02-26T09:41:14;94640.19;;;14.17;90.93
20077;BME280;12348;42.710;23.378;2024-02-26T09:43:44;94653.66;;;13.88;90.66
20077;BME280;12348;42.710;23.378;2024-02-26T09:46:11;94636.44;;;14.01;89.52
20077;BME280;12348;42.710;23.378;2024-02-26T09:48:42;94629.41;;;14.00;89.47
20077;BME280;12348;42.710;23.378;2024-02-26T09:51:10;94632.03;;;13.70;89.49
20077;BME280;12348;42.710;23.378;2024-02-26T09:53:38;94630.94;;;13.71;89.51
20077;BME280;12348;42.710;23.378;2024-02-26T09:56:08;94624.91;;;13.40;90.88
20077;BME280;12348;42.710;23.378;2024-02-26T09:58:36;94631.06;;;13.66;88.57
20077;BME280;12348;42.710;23.378;2024-02-26T10:01:07;94641.25;;;13.69;87.62
20077;BME280;12348;42.710;23.378;2024-02-26T10:03:41;94650.81;;;13.58;87.00
20077;BME280;12348;42.710;23.378;2024-02-26T10:06:09;94647.00;;;13.68;86.16
20077;BME280;12348;42.710;23.378;2024-02-26T10:08:36;94644.94;;;13.47;87.07
20077;BME280;12348;42.710;23.378;2024-02-26T10:11:04;94645.09;;;13.68;86.25
20077;BME280;12348;42.710;23.378;2024-02-26T10:13:31;94624.09;;;13.65;87.39
20077;BME280;12348;42.710;23.378;2024-02-26T10:15:58;94628.69;;;13.82;85.13
20077;BME280;12348;42.710;23.378;2024-02-26T10:18:46;94624.66;;;13.97;84.33
20077;BME280;12348;42.710;23.378;2024-02-26T10:21:13;94645.06;;;13.86;82.27
20077;BME280;12348;42.710;23.378;2024-02-26T10:23:41;94609.97;;;13.42;84.61
20077;BME280;12348;42.710;23.378;2024-02-26T10:26:10;94615.63;;;13.67;84.10
20077;BME280;12348;42.710;23.378;2024-02-26T10:28:37;94620.16;;;13.45;84.30
20077;BME280;12348;42.710;23.378;2024-02-26T10:31:04;94630.31;;;13.57;83.36
20077;BME280;12348;42.710;23.378;2024-02-26T10:33:33;94621.16;;;13.88;83.21
20077;BME280;12348;42.710;23.378;2024-02-26T10:36:02;94605.53;;;14.02;81.05
20077;BME280;12348;42.710;23.378;2024-02-26T10:38:29;94603.28;;;14.04;80.75
20077;BME280;12348;42.710;23.378;2024-02-26T10:40:56;94604.44;;;13.94;80.23
20077;BME280;12348;42.710;23.378;2024-02-26T10:43:24;94586.22;;;13.65;81.08
20077;BME280;12348;42.710;23.378;2024-02-26T10:45:51;94613.47;;;13.34;84.12
20077;BME280;12348;42.710;23.378;2024-02-26T10:48:18;94601.69;;;13.39;84.32
20077;BME280;12348;42.710;23.378;2024-02-26T10:50:45;94590.13;;;13.94;82.49
20077;BME280;12348;42.710;23.378;2024-02-26T10:53:17;94592.38;;;14.21;80.58
20077;BME280;12348;42.710;23.378;2024-02-26T10:55:48;94590.59;;;14.34;79.86
20077;BME280;12348;42.710;23.378;2024-02-26T10:58:16;94583.41;;;14.29;79.39
20077;BME280;12348;42.710;23.378;2024-02-26T11:00:43;94593.66;;;14.24;79.97
20077;BME280;12348;42.710;23.378;2024-02-26T11:03:11;94583.38;;;14.09;80.66
20077;BME280;12348;42.710;23.378;2024-02-26T11:05:40;94586.38;;;14.16;79.58
20077;BME280;12348;42.710;23.378;2024-02-26T11:08:08;94586.75;;;14.35;78.19
20077;BME280;12348;42.710;23.378;2024-02-26T11:10:37;94579.72;;;14.72;75.48
20077;BME280;12348;42.710;23.378;2024-02-26T11:13:05;94591.09;;;14.87;74.81
20077;BME280;12348;42.710;23.378;2024-02-26T11:15:32;94583.56;;;14.33;77.20
20077;BME280;12348;42.710;23.378;2024-02-26T11:17:59;94584.31;;;14.42;77.13
20077;BME280;12348;42.710;23.378;2024-02-26T11:20:28;94579.59;;;14.30;74.72
20077;BME280;12348;42.710;23.378;2024-02-26T11:22:56;94587.66;;;14.10;76.66
20077;BME280;12348;42.710;23.378;2024-02-26T11:25:23;94578.84;;;14.21;75.83
20077;BME280;12348;42.710;23.378;2024-02-26T11:27:55;94580.63;;;14.17;75.36
20077;BME280;12348;42.710;23.378;2024-02-26T11:30:24;94582.38;;;14.51;73.29
20077;BME280;12348;42.710;23.378;2024-02-26T11:32:52;94578.63;;;14.35;71.96
20077;BME280;12348;42.710;23.378;2024-02-26T11:35:19;94572.00;;;14.15;73.36
20077;BME280;12348;42.710;23.378;2024-02-26T11:37:56;94576.28;;;14.25;72.61
20077;BME280;12348;42.710;23.378;2024-02-26T11:40:23;94576.41;;;14.28;73.55
20077;BME280;12348;42.710;23.378;2024-02-26T11:42:53;94576.19;;;14.04;73.02
20077;BME280;12348;42.710;23.378;2024-02-26T11:45:47;94562.53;;;14.30;72.71
20077;BME280;12348;42.710;23.378;2024-02-26T11:48:20;94570.38;;;14.61;71.20
20077;BME280;12348;42.710;23.378;2024-02-26T11:50:48;94555.97;;;14.40;71.03
20077;BME280;12348;42.710;23.378;2024-02-26T11:53:26;94571.22;;;14.53;70.50
20077;BME280;12348;42.710;23.378;2024-02-26T11:56:21;94563.09;;;14.15;72.95
20077;BME280;12348;42.710;23.378;2024-02-26T11:58:53;94549.91;;;14.13;72.38
20077;BME280;12348;42.710;23.378;2024-02-26T12:01:36;94557.25;;;14.42;70.07
20077;BME280;12348;42.710;23.378;2024-02-26T12:04:05;94553.91;;;14.66;70.13
20077;BME280;12348;42.710;23.378;2024-02-26T12:06:33;94544.09;;;14.83;67.74
20077;BME280;12348;42.710;23.378;2024-02-26T12:09:07;94560.59;;;14.69;69.21
20077;BME280;12348;42.710;23.378;2024-02-26T12:11:37;94556.41;;;14.50;67.81
20077;BME280;12348;42.710;23.378;2024-02-26T12:14:08;94566.47;;;14.71;67.83
20077;BME280;12348;42.710;23.378;2024-02-26T12:16:35;94555.91;;;14.48;68.73
20077;BME280;12348;42.710;23.378;2024-02-26T12:19:04;94561.19;;;14.45;69.35
20077;BME280;12348;42.710;23.378;2024-02-26T12:21:33;94541.78;;;14.72;68.56
20077;BME280;12348;42.710;23.378;2024-02-26T12:24:10;94561.91;;;15.04;67.09
20077;BME280;12348;42.710;23.378;2024-02-26T12:26:37;94558.09;;;15.06;66.25
20077;BME280;12348;42.710;23.378;2024-02-26T12:29:04;94548.69;;;15.24;65.16
20077;BME280;12348;42.710;23.378;2024-02-26T12:31:33;94546.47;;;15.05;65.25
20077;BME280;12348;42.710;23.378;2024-02-26T12:34:02;94551.88;;;15.05;65.62
20077;BME280;12348;42.710;23.378;2024-02-26T12:36:29;94554.00;;;15.20;65.16
20077;BME280;12348;42.710;23.378;2024-02-26T12:38:56;94548.31;;;15.13;64.61
20077;BME280;12348;42.710;23.378;2024-02-26T12:41:23;94560.50;;;15.40;62.64
20077;BME280;12348;42.710;23.378;2024-02-26T12:43:50;94564.13;;;14.90;64.22
20077;BME280;12348;42.710;23.378;2024-02-26T12:46:17;94558.50;;;14.95;63.70
20077;BME280;12348;42.710;23.378;2024-02-26T12:48:46;94556.84;;;15.03;62.96
20077;BME280;12348;42.710;23.378;2024-02-26T12:51:14;94550.53;;;15.11;63.27